Orange Beach, Alabama
Current Conditions -  °F | °C
As of 3:35 PM on Wednesday 26 Nov 2014 (Local Time) from KJKA Reporting Station
Clear Clear  
Wind Chill: 58°   Ceiling: Unl
Heat Index: 58°   Visibility: 10mi
Dew Point: 33°   Wind: 9mph
Humidity: 40%   Direction: 240°WSW
Pressure: 30.19"   Gusts: NA
Location:  30.29°N, 87.57°W
Report Text: KJKA 262135Z AUTO 24008KT 10SM CLR 14/01 A3019 RMK AO2 T01440008
Loading
Personal Weather Stations






























Interactive Weather Map New forecast layout! Learn more

10-Day Weather Forecast

Advertisements
Track Severe Weather on mobile